Time;durP1;ratioP1;P1;durP2;ratioP2;P2;SDS_P1;SDS_P2;PMS_P1;PMS_P2;Temp;Humidity;BMP_temperature;BMP_pressure;BME280_temperature;BME280_humidity;BME280_pressure;Samples;Min_cycle;Max_cycle;Signal;HPM_P1;HPM_P2
2024/01/10 00:01:56;;;;;;;0.00;0.00;;;-2.90;1.00;;;;;;5054625;28;20032;-54
2024/01/10 00:04:21;;;;;;;0.00;0.00;;;-2.80;1.00;;;;;;5051002;28;20506;-55
2024/01/10 00:06:47;;;;;;;0.00;0.00;;;-2.80;1.00;;;;;;5049270;28;20055;-53
2024/01/10 00:09:12;;;;;;;0.00;0.00;;;-2.90;1.00;;;;;;5051759;28;20044;-53
2024/01/10 00:11:38;;;;;;;0.00;0.00;;;-2.70;1.00;;;;;;5048436;28;20131;-52
2024/01/10 00:14:04;;;;;;;0.00;0.00;;;-2.70;99.90;;;;;;5054354;28;20072;-56
2024/01/10 00:16:30;;;;;;;0.00;0.00;;;-2.80;99.90;;;;;;5053396;28;20043;-58
2024/01/10 00:18:55;;;;;;;0.00;0.00;;;-2.80;99.90;;;;;;5050579;28;20046;-56
2024/01/10 00:21:21;;;;;;;0.00;0.00;;;-2.90;99.90;;;;;;5048273;28;20041;-57
2024/01/10 00:23:46;;;;;;;0.00;0.00;;;-2.70;1.00;;;;;;5050924;28;20040;-57
2024/01/10 00:26:12;;;;;;;0.00;0.00;;;-2.70;99.90;;;;;;5050605;28;20663;-58
2024/01/10 00:28:38;;;;;;;0.00;0.00;;;-2.70;99.90;;;;;;5050899;28;20044;-56
2024/01/10 00:31:03;;;;;;;0.00;0.00;;;-2.90;99.90;;;;;;5049068;28;20032;-58
2024/01/10 00:33:29;;;;;;;0.00;0.00;;;-2.90;99.90;;;;;;5051635;28;20099;-56
2024/01/10 00:35:54;;;;;;;0.00;0.00;;;-3.00;99.90;;;;;;5055076;28;20456;-58
2024/01/10 00:38:20;;;;;;;0.00;0.00;;;-3.00;99.90;;;;;;5044896;28;20115;-57
2024/01/10 00:40:45;;;;;;;0.00;0.00;;;-2.90;99.90;;;;;;5052230;28;20033;-55
2024/01/10 00:43:11;;;;;;;0.17;0.08;;;-2.80;99.90;;;;;;5050369;28;20119;-58
2024/01/10 00:45:36;;;;;;;3.70;1.42;;;-2.70;99.90;;;;;;5047524;28;20033;-58
2024/01/10 00:48:02;;;;;;;1.75;1.17;;;-2.70;99.90;;;;;;5047243;28;20555;-58
2024/01/10 00:50:28;;;;;;;5.25;2.65;;;-2.80;99.90;;;;;;5050415;28;20032;-58
2024/01/10 00:52:54;;;;;;;1.00;0.88;;;-2.80;99.90;;;;;;5044103;28;20040;-58
2024/01/10 00:55:19;;;;;;;1.73;1.45;;;-2.60;99.90;;;;;;5051308;28;20033;-57
2024/01/10 00:57:45;;;;;;;2.20;1.45;;;-2.70;99.90;;;;;;5050697;28;20496;-57
2024/01/10 01:00:11;;;;;;;3.67;1.75;;;-2.90;99.90;;;;;;5049043;28;20510;-58
2024/01/10 01:02:39;;;;;;;2.95;1.52;;;-2.90;99.90;;;;;;5033277;28;20480;-56
2024/01/10 01:05:08;;;;;;;7.25;1.75;;;-2.80;99.90;;;;;;5050430;28;20484;-58
2024/01/10 01:07:34;;;;;;;1.20;0.90;;;-2.90;99.90;;;;;;5046084;28;20107;-57
2024/01/10 01:10:00;;;;;;;1.00;0.90;;;-2.90;1.00;;;;;;5048218;28;20448;-56
2024/01/10 01:12:26;;;;;;;0.40;0.40;;;-2.70;1.00;;;;;;5049228;28;21091;-59
2024/01/10 01:14:51;;;;;;;0.90;0.43;;;-2.90;99.90;;;;;;5032867;28;20033;-58
2024/01/10 01:17:17;;;;;;;0.20;0.20;;;-2.80;99.90;;;;;;5048699;28;20119;-55
2024/01/10 01:19:43;;;;;;;0.98;0.88;;;;;;;;;;5052333;28;20114;-58
2024/01/10 01:22:09;;;;;;;0.40;0.32;;;-3.20;1.00;;;;;;5046304;28;20503;-52
2024/01/10 01:24:35;;;;;;;5.22;2.35;;;-3.10;1.00;;;;;;5047817;28;20183;-53
2024/01/10 01:27:01;;;;;;;2.15;1.52;;;;;;;;;;5051239;28;20117;-52
2024/01/10 01:29:28;;;;;;;0.50;0.45;;;;;;;;;;5048614;28;20083;-51
2024/01/10 01:31:54;;;;;;;3.25;0.55;;;;;;;;;;5050329;28;20040;-51
2024/01/10 01:34:20;;;;;;;0.38;0.22;;;-3.10;1.00;;;;;;5047297;28;20043;-53
2024/01/10 01:36:46;;;;;;;0.63;0.63;;;-2.80;1.00;;;;;;5050253;28;20429;-51
2024/01/10 01:39:13;;;;;;;0.47;0.47;;;-2.80;1.00;;;;;;5049267;28;20164;-55
2024/01/10 01:41:39;;;;;;;1.92;1.25;;;-2.80;1.00;;;;;;5047584;28;20729;-53
2024/01/10 01:44:04;;;;;;;0.45;0.45;;;-3.10;1.00;;;;;;5053088;28;20051;-54
2024/01/10 01:46:31;;;;;;;4.00;2.20;;;-3.00;1.00;;;;;;5048959;28;20052;-55
2024/01/10 01:48:56;;;;;;;0.30;0.30;;;-2.90;1.00;;;;;;5052384;28;20056;-52
2024/01/10 01:51:23;;;;;;;1.58;0.75;;;-2.80;1.00;;;;;;5044297;28;20036;-51
2024/01/10 01:53:50;;;;;;;1.58;1.48;;;-3.00;1.00;;;;;;5048974;28;20055;-52
2024/01/10 01:56:16;;;;;;;2.55;1.20;;;-2.80;1.00;;;;;;5046985;28;20032;-54
2024/01/10 01:58:43;;;;;;;2.85;1.38;;;-2.90;1.00;;;;;;5048018;28;20051;-53
2024/01/10 02:01:11;;;;;;;1.17;0.35;;;-3.00;1.00;;;;;;5045951;28;20428;-52
2024/01/10 02:03:37;;;;;;;4.85;1.80;;;-3.10;1.00;;;;;;5048102;28;20055;-58
2024/01/10 02:06:03;;;;;;;5.78;1.92;;;-3.10;1.00;;;;;;5054651;28;20480;-58
2024/01/10 02:08:32;;;;;;;1.92;1.45;;;;;;;;;;5056738;28;20051;-58
2024/01/10 02:10:58;;;;;;;0.73;0.73;;;-3.50;99.90;;;;;;5060315;28;20033;-58
2024/01/10 02:13:24;;;;;;;4.55;1.63;;;-3.40;99.90;;;;;;5062234;28;20044;-58
2024/01/10 02:15:51;;;;;;;6.90;1.95;;;-3.50;1.00;;;;;;5061819;28;20106;-57
2024/01/10 02:18:16;;;;;;;2.17;1.17;;;-3.40;1.00;;;;;;5059809;28;20203;-57
2024/01/10 02:20:46;;;;;;;0.22;0.20;;;-3.60;1.00;;;;;;5061929;28;20054;-56
2024/01/10 02:23:11;;;;;;;5.03;1.20;;;-3.50;1.00;;;;;;5060242;28;20112;-57
2024/01/10 02:25:38;;;;;;;2.05;1.40;;;-3.60;1.00;;;;;;5060612;28;20166;-58
2024/01/10 02:28:04;;;;;;;0.88;0.70;;;-3.60;1.00;;;;;;5054905;28;20904;-58
2024/01/10 02:30:30;;;;;;;3.92;0.50;;;-3.60;1.00;;;;;;5058358;28;20047;-57
2024/01/10 02:32:56;;;;;;;1.17;0.93;;;-3.60;1.00;;;;;;5061531;28;20036;-58
2024/01/10 02:35:21;;;;;;;0.30;0.30;;;-3.50;1.00;;;;;;5051823;28;20078;-58
2024/01/10 02:37:49;;;;;;;0.30;0.30;;;-3.50;1.00;;;;;;5047893;28;20076;-58
2024/01/10 02:40:15;;;;;;;7.20;3.88;;;-3.40;1.00;;;;;;5045770;28;20098;-57
2024/01/10 02:42:41;;;;;;;0.30;0.30;;;-3.60;1.00;;;;;;5048040;28;20115;-57
2024/01/10 02:45:07;;;;;;;0.77;0.57;;;-3.50;1.00;;;;;;5044711;28;20555;-58
2024/01/10 02:47:33;;;;;;;0.00;0.00;;;-3.60;1.00;;;;;;5047655;28;20032;-58
2024/01/10 02:49:58;;;;;;;2.10;1.45;;;-3.70;20.50;;;;;;5047963;28;20033;-56
2024/01/10 02:52:24;;;;;;;0.65;0.65;;;-3.80;44.00;;;;;;5044120;28;20400;-56
2024/01/10 02:54:49;;;;;;;0.10;0.10;;;-3.80;99.90;;;;;;5052323;28;20036;-57
2024/01/10 02:57:15;;;;;;;3.30;1.52;;;-3.70;99.90;;;;;;5048100;28;20121;-58
2024/01/10 02:59:40;;;;;;;1.20;0.82;;;-3.60;99.90;;;;;;5045912;28;20530;-57
2024/01/10 03:02:06;;;;;;;1.63;1.20;;;-3.50;34.80;;;;;;5044796;28;20411;-56
2024/01/10 03:04:31;;;;;;;0.00;0.00;;;-3.60;90.40;;;;;;5045231;28;20064;-57
2024/01/10 03:06:57;;;;;;;1.85;1.35;;;-3.80;99.90;;;;;;5049079;28;20036;-56
2024/01/10 03:09:23;;;;;;;0.00;0.00;;;-3.80;99.90;;;;;;5045807;28;20041;-57
2024/01/10 03:11:49;;;;;;;0.80;0.80;;;-3.80;99.90;;;;;;5047715;28;20776;-57
2024/01/10 03:14:14;;;;;;;0.70;0.30;;;-3.70;99.90;;;;;;5043463;28;20216;-57
2024/01/10 03:16:40;;;;;;;10.95;3.90;;;-3.60;99.90;;;;;;5047788;28;20703;-56
2024/01/10 03:19:06;;;;;;;0.43;0.43;;;-3.70;99.90;;;;;;5046854;28;20067;-54
2024/01/10 03:21:32;;;;;;;5.65;2.50;;;-3.90;1.00;;;;;;5048887;28;20488;-58
2024/01/10 03:24:00;;;;;;;0.95;0.93;;;-3.90;99.90;;;;;;5051427;28;20065;-56
2024/01/10 03:26:26;;;;;;;7.03;2.88;;;-3.80;99.90;;;;;;5049378;28;20075;-55
2024/01/10 03:28:52;;;;;;;0.20;0.20;;;-4.00;1.00;;;;;;5045480;28;20513;-57
2024/01/10 03:31:19;;;;;;;3.40;1.50;;;-3.80;1.00;;;;;;5048527;28;20037;-57
2024/01/10 03:33:44;;;;;;;0.32;0.32;;;-3.80;99.90;;;;;;5047100;28;20046;-57
2024/01/10 03:36:13;;;;;;;11.43;2.97;;;-4.00;1.00;;;;;;5049904;28;20041;-56
2024/01/10 03:38:39;;;;;;;1.00;0.63;;;-4.00;1.00;;;;;;5053520;28;20037;-58
2024/01/10 03:41:05;;;;;;;5.97;5.57;;;-4.10;1.00;;;;;;5047518;28;20101;-56
2024/01/10 03:43:30;;;;;;;0.20;0.20;;;-3.90;1.00;;;;;;5044041;28;20044;-57
2024/01/10 03:45:57;;;;;;;0.00;0.00;;;-3.70;1.00;;;;;;5047701;28;20468;-56
2024/01/10 03:48:23;;;;;;;1.17;0.98;;;-3.70;1.00;;;;;;5043578;28;20041;-57
2024/01/10 03:50:48;;;;;;;1.90;1.35;;;-3.80;99.90;;;;;;5034783;28;20044;-56
2024/01/10 03:53:14;;;;;;;0.47;0.28;;;-4.00;1.00;;;;;;5044221;28;20041;-55
2024/01/10 03:55:39;;;;;;;0.75;0.75;;;-4.20;1.00;;;;;;5051248;28;20037;-58
2024/01/10 03:58:05;;;;;;;1.17;0.82;;;-3.80;48.10;;;;;;5043253;28;20040;-58
2024/01/10 04:00:31;;;;;;;0.68;0.68;;;-3.70;1.00;;;;;;5046989;28;20056;-58
2024/01/10 04:02:57;;;;;;;0.35;0.30;;;-3.80;1.00;;;;;;5047827;28;20413;-58
2024/01/10 04:05:25;;;;;;;2.15;1.83;;;-3.90;1.00;;;;;;5039335;28;20492;-57
2024/01/10 04:07:51;;;;;;;1.17;0.73;;;-3.80;1.00;;;;;;5048262;28;21064;-57
2024/01/10 04:10:16;;;;;;;1.65;1.25;;;-4.00;1.00;;;;;;5044452;28;20067;-57
2024/01/10 04:12:43;;;;;;;0.10;0.10;;;-3.90;1.00;;;;;;5049059;28;20124;-56
2024/01/10 04:15:09;;;;;;;0.40;0.40;;;-3.70;1.00;;;;;;5047047;28;20028;-57
2024/01/10 04:17:35;;;;;;;5.38;0.57;;;-3.60;99.90;;;;;;5048681;28;20036;-56
2024/01/10 04:20:01;;;;;;;1.23;0.60;;;-3.50;99.90;;;;;;5042422;28;20057;-58
2024/01/10 04:22:26;;;;;;;2.30;1.85;;;-3.60;99.90;;;;;;5048726;28;20059;-54
2024/01/10 04:24:52;;;;;;;1.55;0.50;;;-3.90;99.90;;;;;;5051718;28;20412;-52
2024/01/10 04:27:20;;;;;;;0.90;0.80;;;-3.80;1.00;;;;;;5045898;28;20064;-52
2024/01/10 04:29:46;;;;;;;0.05;0.05;;;-3.80;99.90;;;;;;5052309;28;20032;-54
2024/01/10 04:32:11;;;;;;;5.68;1.38;;;-3.80;99.90;;;;;;5049278;28;20352;-52
2024/01/10 04:34:37;;;;;;;2.33;1.10;;;-3.90;99.90;;;;;;5051800;28;20428;-54
2024/01/10 04:37:03;;;;;;;2.75;2.33;;;-3.70;99.90;;;;;;5033130;28;20044;-52
2024/01/10 04:39:29;;;;;;;0.28;0.28;;;-3.80;99.90;;;;;;5048865;28;20056;-54
2024/01/10 04:41:55;;;;;;;2.20;1.08;;;-4.20;1.00;;;;;;5046015;28;20033;-52
2024/01/10 04:44:20;;;;;;;2.70;1.85;;;-4.20;9.60;;;;;;5052893;28;20806;-52
2024/01/10 04:46:46;;;;;;;0.13;0.13;;;-4.20;1.00;;;;;;5049057;28;20356;-51
2024/01/10 04:49:11;;;;;;;0.10;0.10;;;-4.00;1.00;;;;;;5051467;28;20044;-52
2024/01/10 04:51:37;;;;;;;2.28;0.93;;;-3.90;1.00;;;;;;5055735;28;20115;-53
2024/01/10 04:54:03;;;;;;;0.63;0.63;;;-3.90;1.00;;;;;;5053205;28;20032;-55
2024/01/10 04:56:29;;;;;;;0.00;0.00;;;-3.80;1.00;;;;;;5049917;28;20033;-53
2024/01/10 04:58:54;;;;;;;2.60;1.80;;;-3.70;1.00;;;;;;5049537;28;20072;-53
2024/01/10 05:01:20;;;;;;;2.28;1.23;;;-4.00;1.00;;;;;;5051149;28;20476;-51
2024/01/10 05:03:45;;;;;;;3.42;1.67;;;-3.90;1.00;;;;;;5052013;28;20296;-57
2024/01/10 05:06:11;;;;;;;0.45;0.45;;;-4.10;1.00;;;;;;5052397;28;20040;-57
2024/01/10 05:08:37;;;;;;;2.30;0.30;;;-4.30;99.90;;;;;;5047819;28;20118;-58
2024/01/10 05:11:02;;;;;;;1.70;1.23;;;-4.40;1.00;;;;;;5049848;28;20439;-57
2024/01/10 05:13:28;;;;;;;2.58;1.33;;;-4.10;1.00;;;;;;5046972;28;20037;-56
2024/01/10 05:15:54;;;;;;;2.45;1.88;;;-4.00;1.00;;;;;;5047616;28;20165;-55
2024/01/10 05:18:21;;;;;;;4.55;0.85;;;-3.90;99.90;;;;;;5051253;28;20464;-57
2024/01/10 05:20:47;;;;;;;0.40;0.40;;;-4.30;1.00;;;;;;5050440;28;20041;-56
2024/01/10 05:23:13;;;;;;;1.70;1.15;;;-4.10;1.00;;;;;;5050345;28;20036;-58
2024/01/10 05:25:38;;;;;;;0.38;0.38;;;-3.90;1.00;;;;;;5049414;28;20122;-57
2024/01/10 05:28:04;;;;;;;0.15;0.15;;;-3.90;99.90;;;;;;5047056;28;21318;-56
2024/01/10 05:30:31;;;;;;;0.38;0.38;;;-3.80;99.90;;;;;;5050416;28;20032;-56
2024/01/10 05:32:58;;;;;;;0.80;0.70;;;-3.60;99.90;;;;;;5047670;28;20603;-52
2024/01/10 05:35:28;;;;;;;0.10;0.10;;;-3.80;99.90;;;;;;5047944;28;20033;-54
2024/01/10 05:37:54;;;;;;;7.03;3.08;;;-3.80;99.90;;;;;;5052733;28;20397;-50
2024/01/10 05:40:20;;;;;;;0.57;0.57;;;-4.10;99.90;;;;;;5047441;28;20056;-52
2024/01/10 05:42:45;;;;;;;1.55;0.82;;;-4.30;1.00;;;;;;5051746;28;20527;-51
2024/01/10 05:45:11;;;;;;;4.00;1.90;;;-4.40;1.00;;;;;;5043184;28;20275;-51
2024/01/10 05:47:37;;;;;;;0.85;0.70;;;-4.10;1.00;;;;;;5048282;28;20067;-52
2024/01/10 05:50:06;;;;;;;0.85;0.82;;;-4.00;1.00;;;;;;5050122;28;20115;-52
2024/01/10 05:52:33;;;;;;;0.75;0.52;;;-3.80;99.90;;;;;;5051438;28;20085;-54
2024/01/10 05:54:59;;;;;;;4.13;2.13;;;-3.80;99.90;;;;;;5038120;28;20060;-52
2024/01/10 05:57:24;;;;;;;0.57;0.57;;;-3.80;99.90;;;;;;5046272;28;20941;-53
2024/01/10 05:59:52;;;;;;;3.40;2.88;;;-3.80;99.90;;;;;;5050951;28;20498;-51
2024/01/10 06:02:18;;;;;;;7.45;3.28;;;-3.90;99.90;;;;;;5050703;28;20878;-52
2024/01/10 06:04:43;;;;;;;3.70;1.67;;;-3.90;99.90;;;;;;5047177;28;20044;-54
2024/01/10 06:07:09;;;;;;;8.90;3.90;;;-3.90;99.90;;;;;;5048515;28;20425;-52
2024/01/10 06:09:34;;;;;;;3.50;1.58;;;-3.90;99.90;;;;;;5049481;28;20389;-52
2024/01/10 06:12:00;;;;;;;5.18;2.45;;;-4.00;99.90;;;;;;5046515;28;20048;-51
2024/01/10 06:14:26;;;;;;;11.35;1.42;;;-4.00;99.90;;;;;;5046468;28;20060;-53
2024/01/10 06:16:51;;;;;;;0.47;0.47;;;-3.90;99.90;;;;;;5051927;28;20032;-52
2024/01/10 06:19:18;;;;;;;9.75;4.43;;;-4.00;99.90;;;;;;5050976;28;20484;-54
2024/01/10 06:21:44;;;;;;;5.03;1.88;;;-4.00;99.90;;;;;;5045006;28;20037;-51
2024/01/10 06:24:09;;;;;;;0.52;0.52;;;-3.90;99.90;;;;;;5052652;28;20037;-51
2024/01/10 06:26:35;;;;;;;6.75;3.53;;;-3.80;99.90;;;;;;5049370;28;20041;-51
2024/01/10 06:29:00;;;;;;;3.63;2.13;;;-4.00;99.90;;;;;;5051022;28;20430;-53
2024/01/10 06:31:26;;;;;;;2.05;1.75;;;-4.00;99.90;;;;;;5047590;28;20033;-53
2024/01/10 06:33:51;;;;;;;3.17;1.52;;;-4.10;85.60;;;;;;5049048;28;20296;-53
2024/01/10 06:36:17;;;;;;;4.72;1.95;;;-3.90;99.90;;;;;;5048738;28;20138;-52
2024/01/10 06:38:43;;;;;;;0.70;0.70;;;-3.90;1.00;;;;;;5048275;28;20052;-53
2024/01/10 06:41:09;;;;;;;2.58;1.80;;;-3.80;1.00;;;;;;5049510;28;20063;-53
2024/01/10 06:43:36;;;;;;;2.85;1.33;;;-3.90;1.00;;;;;;5051176;28;20442;-52
2024/01/10 06:46:03;;;;;;;4.20;1.13;;;-3.90;1.00;;;;;;5045119;28;20518;-54
2024/01/10 06:48:29;;;;;;;1.38;1.25;;;-3.80;1.00;;;;;;5048786;28;20044;-49
2024/01/10 06:50:55;;;;;;;0.22;0.22;;;-3.70;1.00;;;;;;5048678;28;20123;-54
2024/01/10 06:53:21;;;;;;;5.50;1.88;;;-3.70;1.00;;;;;;5047400;28;20052;-51
2024/01/10 06:55:46;;;;;;;3.58;1.20;;;-3.60;1.00;;;;;;5046902;28;20090;-52
2024/01/10 06:58:12;;;;;;;1.95;1.10;;;-3.50;1.00;;;;;;5047423;28;20040;-51
2024/01/10 07:00:38;;;;;;;1.48;0.65;;;-3.80;1.00;;;;;;5046521;28;20050;-51
2024/01/10 07:03:04;;;;;;;0.20;0.20;;;-3.80;1.00;;;;;;5048405;28;20121;-52
2024/01/10 07:05:31;;;;;;;1.25;1.05;;;-3.70;1.00;;;;;;5029821;28;20057;-51
2024/01/10 07:07:57;;;;;;;2.70;1.95;;;-3.70;1.00;;;;;;5046228;28;20193;-53
2024/01/10 07:10:27;;;;;;;0.30;0.30;;;-3.80;1.00;;;;;;5041699;28;20055;-54
2024/01/10 07:12:55;;;;;;;12.07;2.72;;;-3.90;1.00;;;;;;5048146;28;20168;-53
2024/01/10 07:15:22;;;;;;;8.73;2.25;;;-3.80;1.00;;;;;;5043365;28;20044;-53
2024/01/10 07:17:48;;;;;;;2.22;1.45;;;-3.80;1.00;;;;;;5051807;28;20036;-50
2024/01/10 07:20:13;;;;;;;1.20;0.68;;;-3.90;1.00;;;;;;5043348;28;20041;-52
2024/01/10 07:22:43;;;;;;;1.00;1.00;;;-3.80;54.00;;;;;;5048368;28;20037;-50
2024/01/10 07:25:10;;;;;;;1.83;1.73;;;-3.80;30.30;;;;;;5050287;28;20028;-51
2024/01/10 07:27:37;;;;;;;8.32;3.78;;;-3.60;99.90;;;;;;5044667;28;20070;-53
2024/01/10 07:30:10;;;;;;;1.05;0.85;;;-3.90;1.00;;;;;;5056122;28;20032;-52
2024/01/10 07:32:36;;;;;;;0.45;0.45;;;-4.00;99.90;;;;;;5049948;28;20508;-53
2024/01/10 07:35:01;;;;;;;3.75;1.95;;;-4.10;99.90;;;;;;5054522;28;20047;-52
2024/01/10 07:37:27;;;;;;;1.33;1.15;;;-4.10;99.90;;;;;;5057566;28;20040;-52
2024/01/10 07:39:54;;;;;;;8.63;4.18;;;-4.00;99.90;;;;;;5057713;28;20055;-51
2024/01/10 07:42:19;;;;;;;1.40;0.65;;;-4.10;99.90;;;;;;5057735;28;21202;-53
2024/01/10 07:44:45;;;;;;;2.00;1.58;;;-4.00;99.90;;;;;;5055033;28;20044;-53
2024/01/10 07:47:10;;;;;;;3.65;1.27;;;-3.80;99.90;;;;;;5052277;28;20524;-49
2024/01/10 07:49:36;;;;;;;2.05;1.25;;;-3.90;90.10;;;;;;5054777;28;20389;-53
2024/01/10 07:52:04;;;;;;;1.00;0.88;;;-3.90;99.90;;;;;;5059605;28;20040;-52
2024/01/10 07:54:31;;;;;;;1.52;1.05;;;-3.70;99.90;;;;;;5058698;28;20043;-57
2024/01/10 07:56:57;;;;;;;0.20;0.20;;;-4.00;99.90;;;;;;5056578;28;20040;-57
2024/01/10 07:59:24;;;;;;;10.20;4.07;;;-3.90;99.90;;;;;;5056145;28;20048;-57
2024/01/10 08:01:58;;;;;;;5.07;1.98;;;-3.80;99.90;;;;;;5058677;28;20032;-55
2024/01/10 08:04:25;;;;;;;11.70;4.45;;;-3.70;99.90;;;;;;5057887;28;20701;-56
2024/01/10 08:06:50;;;;;;;8.05;1.98;;;-3.80;45.30;;;;;;5060141;28;20109;-57
2024/01/10 08:09:16;;;;;;;1.38;1.20;;;-3.70;99.90;;;;;;5061833;28;20774;-55
2024/01/10 08:11:41;;;;;;;2.50;1.90;;;-3.60;99.90;;;;;;5056821;28;20047;-57
2024/01/10 08:14:07;;;;;;;1.25;1.25;;;-3.90;99.90;;;;;;5057743;28;20037;-58
2024/01/10 08:16:32;;;;;;;0.77;0.77;;;-3.70;99.90;;;;;;5046795;28;20040;-56
2024/01/10 08:18:58;;;;;;;1.70;0.93;;;-3.80;99.90;;;;;;5062972;28;20028;-54
2024/01/10 08:21:25;;;;;;;7.43;3.45;;;-3.70;99.90;;;;;;5062525;28;20098;-57
2024/01/10 08:23:50;;;;;;;9.63;1.80;;;-3.80;99.90;;;;;;5060246;28;20039;-57
2024/01/10 08:26:16;;;;;;;3.63;1.40;;;-4.00;99.90;;;;;;5059087;28;20483;-57
2024/01/10 08:28:42;;;;;;;11.93;4.68;;;-4.10;99.90;;;;;;5040609;28;20102;-56
2024/01/10 08:31:08;;;;;;;6.30;2.83;;;-4.00;99.90;;;;;;5064664;28;20129;-55
2024/01/10 08:33:33;;;;;;;1.58;0.57;;;-3.80;99.90;;;;;;5064103;28;20495;-58
2024/01/10 08:35:59;;;;;;;2.75;0.80;;;-3.70;99.90;;;;;;5062213;28;20039;-57
2024/01/10 08:38:25;;;;;;;3.33;2.05;;;-3.60;99.90;;;;;;5062650;28;20050;-57
2024/01/10 08:40:50;;;;;;;2.75;0.65;;;-3.60;37.40;;;;;;5063319;28;20039;-55
2024/01/10 08:43:17;;;;;;;2.08;1.98;;;-3.50;24.80;;;;;;5061579;28;20029;-57
2024/01/10 08:45:44;;;;;;;8.48;3.88;;;-3.40;48.80;;;;;;5060652;28;20029;-54
2024/01/10 08:48:11;;;;;;;5.63;2.83;;;-3.50;1.00;;;;;;5059251;28;20036;-57
2024/01/10 08:50:37;;;;;;;2.65;2.03;;;-3.60;55.50;;;;;;5064328;28;20316;-56
2024/01/10 08:53:05;;;;;;;4.38;2.08;;;-3.50;99.90;;;;;;5061491;28;20424;-55
2024/01/10 08:55:34;;;;;;;5.90;0.88;;;-3.40;42.00;;;;;;5062234;28;20487;-55
2024/01/10 08:57:59;;;;;;;0.47;0.47;;;-3.30;97.70;;;;;;5059332;28;20035;-56
2024/01/10 09:00:25;;;;;;;7.82;3.67;;;-3.20;73.80;;;;;;5063132;28;20033;-57
2024/01/10 09:02:50;;;;;;;0.60;0.60;;;-3.30;1.00;;;;;;5063654;28;20059;-58
2024/01/10 09:05:16;;;;;;;2.92;1.48;;;-3.30;99.90;;;;;;5063588;28;20289;-57
2024/01/10 09:07:42;;;;;;;1.45;1.30;;;-3.20;1.00;;;;;;5062381;28;20032;-61
2024/01/10 09:10:08;;;;;;;9.38;3.80;;;-3.20;1.00;;;;;;5060712;28;20123;-62
2024/01/10 09:12:34;;;;;;;2.97;2.15;;;-3.10;1.00;;;;;;5063883;28;20453;-61
2024/01/10 09:15:00;;;;;;;4.15;2.72;;;-3.10;1.00;;;;;;5055416;28;20492;-61
2024/01/10 09:17:27;;;;;;;3.97;2.00;;;-3.00;1.00;;;;;;5044180;28;20044;-61
2024/01/10 09:19:53;;;;;;;4.63;2.17;;;-3.10;1.00;;;;;;5063722;28;20036;-61
2024/01/10 09:22:19;;;;;;;1.67;1.58;;;-3.00;1.00;;;;;;5063497;28;20078;-61
2024/01/10 09:24:44;;;;;;;0.70;0.70;;;-2.80;99.90;;;;;;5062756;28;20037;-59
2024/01/10 09:27:10;;;;;;;12.32;4.43;;;-2.80;1.00;;;;;;5058853;28;20024;-61
2024/01/10 09:29:36;;;;;;;1.33;1.13;;;-2.80;1.00;;;;;;5062539;28;20668;-59
2024/01/10 09:32:02;;;;;;;3.92;2.08;;;-2.90;1.00;;;;;;5061627;28;20040;-57
2024/01/10 09:34:28;;;;;;;0.47;0.47;;;-2.80;1.00;;;;;;5038026;28;20128;-61
2024/01/10 09:36:54;;;;;;;1.52;0.88;;;-2.60;1.00;;;;;;5061872;28;20669;-62
2024/01/10 09:39:19;;;;;;;8.35;1.88;;;-2.50;1.00;;;;;;5058600;28;20127;-59
2024/01/10 09:41:50;;;;;;;4.30;3.08;;;-2.60;1.00;;;;;;5062274;28;20029;-59
2024/01/10 09:44:17;;;;;;;2.20;1.65;;;-2.50;1.00;;;;;;5059702;28;20032;-61
2024/01/10 09:46:47;;;;;;;17.52;10.05;;;-2.60;1.00;;;;;;5060772;28;20131;-60
2024/01/10 09:49:13;;;;;;;5.45;2.47;;;-2.50;1.00;;;;;;5056965;28;20585;-60
2024/01/10 09:51:39;;;;;;;1.55;0.98;;;-2.40;1.00;;;;;;5060771;28;20481;-60
2024/01/10 09:54:05;;;;;;;3.90;1.45;;;-2.40;99.90;;;;;;5061612;28;20043;-55
2024/01/10 09:56:32;;;;;;;1.95;1.35;;;-2.30;99.90;;;;;;5061829;28;20036;-55
2024/01/10 09:59:00;;;;;;;5.13;2.25;;;-2.30;99.90;;;;;;5039470;28;20070;-56
2024/01/10 10:01:26;;;;;;;0.10;0.10;;;-2.30;99.90;;;;;;5057992;28;20459;-54
2024/01/10 10:03:53;;;;;;;6.20;3.00;;;;;;;;;;5060302;28;20496;-61
2024/01/10 10:06:20;;;;;;;6.38;3.00;;;;;;;;;;5058787;28;20035;-61
2024/01/10 10:08:46;;;;;;;2.10;1.15;;;;;;;;;;5060059;28;20283;-62
2024/01/10 10:11:14;;;;;;;3.13;0.80;;;;;;;;;;5058369;28;20037;-62
2024/01/10 10:13:41;;;;;;;3.72;1.75;;;;;;;;;;5054527;28;20357;-56
2024/01/10 10:16:09;;;;;;;1.50;1.30;;;;;;;;;;5051924;28;20104;-55
2024/01/10 10:18:35;;;;;;;1.35;1.10;;;;;;;;;;5057438;28;20037;-56
2024/01/10 10:21:09;;;;;;;4.15;2.10;;;;;;;;;;5051850;28;20150;-57
2024/01/10 10:23:36;;;;;;;4.35;2.70;;;;;;;;;;5055856;28;20060;-56
2024/01/10 10:26:14;;;;;;;1.77;1.50;;;;;;;;;;5060305;28;20037;-55
2024/01/10 10:28:41;;;;;;;0.63;0.57;;;;;;;;;;5057389;28;20036;-56
2024/01/10 10:31:07;;;;;;;6.55;3.15;;;;;;;;;;5059670;28;20420;-55
2024/01/10 10:33:33;;;;;;;2.75;1.67;;;;;;;;;;5061253;28;20424;-56
2024/01/10 10:35:59;;;;;;;1.17;1.08;;;;;;;;;;5062075;28;20029;-55
2024/01/10 10:38:25;;;;;;;6.90;1.75;;;;;;;;;;5060932;28;20025;-56
2024/01/10 10:40:51;;;;;;;3.60;1.63;;;;;;;;;;5057651;28;20124;-55
2024/01/10 10:43:21;;;;;;;1.75;1.30;;;;;;;;;;5060226;28;20044;-59
2024/01/10 10:45:48;;;;;;;4.88;2.92;;;;;;;;;;5061706;28;20041;-56
2024/01/10 10:48:17;;;;;;;1.45;1.25;;;;;;;;;;5065584;28;20468;-55
2024/01/10 10:50:46;;;;;;;5.63;2.17;;;;;;;;;;5064414;28;20025;-55
2024/01/10 10:53:12;;;;;;;1.77;1.65;;;;;;;;;;5058179;28;20039;-58
2024/01/10 10:55:39;;;;;;;1.05;1.05;;;;;;;;;;5052259;28;20032;-55
2024/01/10 10:58:05;;;;;;;3.35;1.40;;;;;;;;;;5049452;28;20521;-57
2024/01/10 11:00:32;;;;;;;1.35;0.65;;;;;;;;;;5044511;28;20040;-60
2024/01/10 11:02:58;;;;;;;7.70;3.70;;;;;;;;;;5052742;28;20082;-60
2024/01/10 11:05:24;;;;;;;0.50;0.50;;;;;;;;;;5055073;28;20466;-59
2024/01/10 11:07:54;;;;;;;0.77;0.75;;;;;;;;;;5053398;28;20726;-56
2024/01/10 11:10:29;;;;;;;6.45;2.28;;;;;;;;;;5045798;28;20066;-62
2024/01/10 11:13:20;;;;;;;0.35;0.22;;;;;;;;;;5047327;28;20061;-61
2024/01/10 11:15:49;;;;;;;2.90;1.27;;;;;;;;;;5048749;28;20157;-58
2024/01/10 11:18:30;;;;;;;8.05;2.97;;;;;;;;;;5049983;28;20064;-61
2024/01/10 11:21:16;;;;;;;5.45;3.65;;;;;;;;;;5058234;28;20031;-60
2024/01/10 11:23:44;;;;;;;3.88;1.88;;;;;;;;;;5006744;28;20510;-59
2024/01/10 11:26:11;;;;;;;3.50;2.60;;;;;;;;;;5056777;28;20035;-57
2024/01/10 11:28:37;;;;;;;5.18;3.50;;;;;;;;;;5051025;28;20209;-56
2024/01/10 11:31:03;;;;;;;4.38;2.50;;;;;;;;;;5051458;28;20037;-59
2024/01/10 11:33:33;;;;;;;0.63;0.63;;;;;;;;;;5055292;28;20116;-60
2024/01/10 11:36:09;;;;;;;0.35;0.35;;;;;;;;;;5052275;28;20056;-61
2024/01/10 11:38:38;;;;;;;0.65;0.65;;;;;;;;;;5054588;28;20045;-60
2024/01/10 11:41:04;;;;;;;0.50;0.50;;;;;;;;;;5051987;28;20458;-60
2024/01/10 11:43:30;;;;;;;7.78;3.92;;;;;;;;;;5053256;28;20037;-59
2024/01/10 11:45:56;;;;;;;2.33;0.50;;;;;;;;;;5056041;28;20037;-61
2024/01/10 11:48:27;;;;;;;13.90;4.30;;;;;;;;;;5055591;28;20090;-59
2024/01/10 11:50:53;;;;;;;8.07;4.90;;;;;;;;;;5056285;28;20885;-59
2024/01/10 11:53:39;;;;;;;1.33;1.30;;;;;;;;;;5051848;28;20045;-62
2024/01/10 11:56:15;;;;;;;3.15;2.35;;;;;;;;;;5051278;28;20147;-61
2024/01/10 11:58:53;;;;;;;2.28;1.98;;;;;;;;;;5058533;28;20036;-61
2024/01/10 12:01:21;;;;;;;1.58;1.48;;;;;;;;;;5052538;28;20048;-59
2024/01/10 12:03:48;;;;;;;0.28;0.28;;;;;;;;;;5056932;28;20052;-61
2024/01/10 12:06:15;;;;;;;21.45;4.10;;;;;;;;;;5058651;28;20063;-60
2024/01/10 12:08:41;;;;;;;1.95;1.85;;;;;;;;;;5058606;28;20037;-61
2024/01/10 12:11:08;;;;;;;3.10;1.25;;;;;;;;;;5054091;28;20147;-61
2024/01/10 12:13:34;;;;;;;1.42;0.45;;;;;;;;;;5049722;28;20041;-61
2024/01/10 12:16:00;;;;;;;7.47;2.35;;;;;;;;;;5058730;28;20115;-59
2024/01/10 12:18:26;;;;;;;1.17;0.88;;;;;;;;;;5056393;28;20068;-62
2024/01/10 12:20:52;;;;;;;1.70;0.75;;;;;;;;;;5059615;28;20040;-60
2024/01/10 12:23:19;;;;;;;2.70;2.17;;;;;;;;;;5057783;28;20036;-61
2024/01/10 12:25:45;;;;;;;0.57;0.57;;;;;;;;;;5047147;28;20527;-61
2024/01/10 12:28:11;;;;;;;2.47;2.28;;;;;;;;;;5055357;28;20403;-61
2024/01/10 12:30:37;;;;;;;10.57;4.90;;;;;;;;;;5057287;28;20048;-59
2024/01/10 12:33:03;;;;;;;0.00;0.00;;;;;;;;;;5053711;28;20323;-61
2024/01/10 12:35:29;;;;;;;2.10;1.95;;;;;;;;;;5060400;28;20748;-61
2024/01/10 12:37:56;;;;;;;2.17;1.45;;;;;;;;;;5056191;28;20429;-62
2024/01/10 12:40:22;;;;;;;1.33;0.93;;;;;;;;;;5058006;28;20041;-60
2024/01/10 12:42:48;;;;;;;4.78;4.57;;;;;;;;;;5057429;28;20090;-60
2024/01/10 12:45:24;;;;;;;6.18;2.65;;;;;;;;;;5057399;28;20392;-59
2024/01/10 12:47:51;;;;;;;5.38;2.78;;;;;;;;;;5039326;28;20032;-60
2024/01/10 12:50:17;;;;;;;2.30;1.90;;;;;;;;;;5056422;28;20273;-61
2024/01/10 12:52:44;;;;;;;0.82;0.82;;;;;;;;;;5057157;28;20485;-61
2024/01/10 12:55:10;;;;;;;8.50;2.40;;;;;;;;;;5058808;28;20108;-60
2024/01/10 12:57:36;;;;;;;8.13;4.57;;;;;;;;;;5056270;28;20044;-61
2024/01/10 13:00:06;;;;;;;4.90;2.42;;;;;;;;;;5057873;28;20055;-63
2024/01/10 13:02:36;;;;;;;5.60;3.83;;;;;;;;;;5059923;28;20043;-61
2024/01/10 13:05:02;;;;;;;1.05;0.95;;;;;;;;;;5057176;28;20399;-62
2024/01/10 13:07:31;;;;;;;0.82;0.82;;;;;;;;;;5058015;28;20121;-59
2024/01/10 13:09:57;;;;;;;15.82;5.68;;;;;;;;;;5059635;28;20048;-61
2024/01/10 13:12:23;;;;;;;5.20;2.38;;;;;;;;;;5060016;28;20048;-57
2024/01/10 13:14:49;;;;;;;1.45;1.15;;;;;;;;;;5040590;28;20041;-56